Main page
METAR-TAF:

METAR-TAF

Airports :

Iași International Airport

Iasi, Romania

latitude: 47-10N, longitude: 027-38E, elevation: 102 m

Current weather observation

The report was made 34 minutes ago, at 10:30 UTC
Wind 10 kt from the East, varying between East/Northeast and East/Southeast
Temperature 26°C
Humidity 24%
Pressure 1022 hPa
Visibility 10 km or more
no clouds below 1500 m and no cumulonimbus

METAR: LRIA 251030Z 09010KT 060V120 CAVOK 26/04 Q1022

Time: 14:04 (11:04 UTC)

Forecast

The report was made 3 hours and 4 minutes ago, at 08:00 UTC
Forecast valid from 25 at 09 UTC to 25 at 18 UTC
Wind 9 kt from the East/Southeast
Visibility 10 km or more
no clouds below 1500 m and no cumulonimbus

TAF: LRIA 250800Z 2509/2518 12009KT CAVOK

Weather observations and forecasts of more than 4000 airports (METAR and TAF reports).

The available stations are represented by yellow and red dots on the map.

Hover mouse over dot to see the name of the station.

Then click to see weather observations and forecasts.

To change the map : click on the green buttons with a black cross to zoom in, on the green button with a dash to zoom out, or on the green arrows for adjacent maps.


METAR-TAF: